Flight Track Log - Related Links

Times and Time Zones

All times are in EDT time to prevent confusion due to time zone crossing. See the AVA42 flight status page for this flight to view local times or setup timezone preferences in your user account.

Time Position Orientation Groundspeed Altitude Reporting Facility
EDT Latitude Longitude Course Direction KTS MPH feet Rate Location/Type
Thu 04:06:00 AM 6.7570 -75.5211 349° North  Level FlightAware Approximate
Thu 04:07:00 AM 6.8735 -75.5441 349° North  Level FlightAware Approximate
Thu 04:08:00 AM 6.9922 -75.5541 355° North  Level FlightAware Approximate
Thu 04:09:00 AM 7.1109 -75.5642 355° North  Level FlightAware Approximate
Thu 04:10:00 AM 7.2296 -75.5742 355° North  Level FlightAware Approximate
Thu 04:11:00 AM 7.3482 -75.5842 355° North  Level FlightAware Approximate
Thu 04:12:00 AM 7.4669 -75.5943 355° North  Level FlightAware Approximate
Thu 04:13:00 AM 7.5856 -75.6043 355° North  Level FlightAware Approximate
Thu 04:14:00 AM 7.7042 -75.6144 355° North  Level FlightAware Approximate
Thu 04:15:00 AM 7.8229 -75.6244 355° North  Level FlightAware Approximate
Thu 04:16:00 AM 7.9416 -75.6345 355° North  Level FlightAware Approximate
Thu 04:17:00 AM 8.0603 -75.6446 355° North  Level FlightAware Approximate
Thu 04:18:00 AM 8.1789 -75.6546 355° North  Level FlightAware Approximate
Thu 04:19:00 AM 8.2976 -75.6647 355° North  Level FlightAware Approximate
Thu 04:20:00 AM 8.4163 -75.6748 355° North  Level FlightAware Approximate
Thu 04:21:00 AM 8.7325 -75.7077 354° North  Level FlightAware Approximate
Thu 04:22:00 AM 9.0485 -75.7434 354° North  Level FlightAware Approximate
Thu 04:23:00 AM 9.3644 -75.7793 354° North  Level FlightAware Approximate
Thu 04:24:00 AM 9.6801 -75.8151 354° North  Level FlightAware Approximate
Thu 04:25:00 AM 9.9958 -75.8510 354° North  Level FlightAware Approximate
Thu 04:26:00 AM 10.3116 -75.8871 354° North  Level FlightAware Approximate
Thu 04:27:00 AM 10.6276 -75.9233 354° North  Level FlightAware Approximate
Thu 04:28:00 AM 10.9437 -75.9596 354° North  Level FlightAware Approximate
Thu 04:29:00 AM 11.2597 -75.9960 354° North  Level FlightAware Approximate
Thu 04:30:00 AM 11.5758 -76.0324 354° North  Level FlightAware Approximate
Thu 04:31:00 AM 11.8912 -76.0689 354° North  Level FlightAware Approximate
Thu 04:32:00 AM 12.2067 -76.1055 354° North  Level FlightAware Approximate
Thu 04:32:53 AM 31.9239 -78.6411 353° North 442 509 37,000  Level Jacksonville Center
Thu 04:33:00 AM 12.5221 -76.1421 354° North  Level FlightAware Approximate
Thu 04:33:53 AM 32.0622 -78.6542 355° North 442 509 36,900  Level Jacksonville Center
Thu 04:34:00 AM 12.8375 -76.1788 354° North  Level FlightAware Approximate
Thu 04:34:53 AM 32.1872 -78.6508 North 442 509 36,900  Level Jacksonville Center
Thu 04:35:00 AM 13.1530 -76.2157 354° North  Level FlightAware Approximate
Thu 04:36:00 AM 13.4684 -76.2526 354° North  Level FlightAware Approximate
Thu 04:36:30 AM 32.3692 -78.6092 11° North 435 501 37,000  Level Washington Center
Thu 04:37:00 AM 13.7838 -76.2896 353° North  Level FlightAware Approximate
Thu 04:37:29 AM 32.4950 -78.5889 North 448 516 37,000  Level Washington Center
Thu 04:38:00 AM 14.0992 -76.3267 353° North  Level FlightAware Approximate
Thu 04:42:15 AM 33.0780 -78.3270 North 461 531 37,000  Level FlightAware ADS-B
Thu 04:43:10 AM 33.1830 -78.2710 24° Northeast 461 531 37,000  Level FlightAware ADS-B
Thu 04:43:45 AM 33.2520 -78.2340 24° Northeast 459 528 37,000  Level FlightAware ADS-B
Thu 04:44:30 AM 33.3350 -78.1890 24° Northeast 457 526 37,000  Level FlightAware ADS-B
Thu 04:45:05 AM 33.4070 -78.1500 24° Northeast 455 524 37,000  Level FlightAware ADS-B
Thu 04:45:40 AM 33.4690 -78.1170 24° Northeast 454 522 37,000  Level FlightAware ADS-B
Thu 04:46:10 AM 33.5270 -78.0850 25° Northeast 454 522 37,000  Level FlightAware ADS-B
Thu 04:46:52 AM 33.5970 -78.0470 24° Northeast 453 521 37,000  Level FlightAware ADS-B
Thu 04:47:40 AM 33.5750 -78.0500 186° South 460 529 37,000  Level FlightAware ADS-B
Thu 04:48:18 AM 33.7620 -77.9200 30° Northeast 463 533 37,000  Level FlightAware ADS-B
Thu 04:48:53 AM 33.8280 -77.8850 24° Northeast 467 537 37,000  Level FlightAware ADS-B
Thu 04:49:34 AM 33.9190 -77.8390 23° Northeast 470 541 37,000 73 Level FlightAware ADS-B
Thu 04:50:15 AM 34.0010 -77.7960 23° Northeast 472 543 37,100 83 Climbing FlightAware ADS-B
Thu 04:50:46 AM 34.0570 -77.7670 23° Northeast 472 543 37,100  Level FlightAware ADS-B
Thu 04:51:24 AM 34.1220 -77.7340 23° Northeast 472 543 37,100  Level FlightAware ADS-B
Thu 04:52:00 AM 34.1840 -77.7020 23° Northeast 472 543 37,100  Level FlightAware ADS-B
Thu 04:52:37 AM 34.2470 -77.6700 23° Northeast 472 543 37,100  Level FlightAware ADS-B
Thu 04:53:14 AM 34.3100 -77.6370 23° Northeast 472 543 37,100  Level FlightAware ADS-B
Thu 04:53:51 AM 34.3730 -77.6050 23° Northeast 472 543 37,100  Level FlightAware ADS-B
Thu 04:54:27 AM 34.4350 -77.5730 23° Northeast 472 543 37,100  Level FlightAware ADS-B
Thu 04:55:03 AM 34.4960 -77.5410 23° Northeast 472 543 37,100  Level FlightAware ADS-B
Thu 04:55:40 AM 34.5600 -77.5090 22° Northeast 472 543 37,100  Level FlightAware ADS-B
Thu 04:56:16 AM 34.6210 -77.4770 23° Northeast 472 543 37,100  Level FlightAware ADS-B
Thu 04:56:53 AM 34.6840 -77.4440 23° Northeast 472 543 37,100  Level FlightAware ADS-B
Thu 04:57:30 AM 34.7480 -77.4120 22° Northeast 472 543 37,100  Level FlightAware ADS-B
Thu 04:58:07 AM 34.8110 -77.3790 23° Northeast 472 543 37,100  Level FlightAware ADS-B
Thu 04:58:43 AM 34.8720 -77.3470 23° Northeast 472 543 37,100  Level FlightAware ADS-B
Thu 04:59:19 AM 34.9340 -77.3150 23° Northeast 472 543 37,100  Level FlightAware ADS-B
Thu 04:59:55 AM 34.9950 -77.2840 23° Northeast 472 543 37,100  Level FlightAware ADS-B
Thu 05:00:31 AM 35.0570 -77.2520 23° Northeast 472 543 37,100 -64 Level FlightAware ADS-B
Thu 05:01:29 AM 35.3361 -77.1758 23° Northeast 454 522 37,000 -50 Descending Washington Center
Thu 05:02:30 AM 35.4497 -77.0964 30° Northeast 460 529 37,000  Level Washington Center
Thu 05:03:31 AM 35.5592 -77.0142 31° Northeast 466 536 37,000 -50 Level Washington Center
Thu 05:04:30 AM 35.6686 -76.9369 30° Northeast 460 529 36,900 -50 Descending Washington Center
Thu 05:05:30 AM 35.7819 -76.8697 26° Northeast 450 518 36,900  Level Washington Center
Thu 05:06:32 AM 35.8997 -76.7997 26° Northeast 450 518 36,900 50 Level Washington Center
Thu 05:07:31 AM 36.0150 -76.7269 27° Northeast 455 524 37,000 50 Climbing Washington Center
Thu 05:08:31 AM 36.1325 -76.6592 25° Northeast 455 524 37,000  Level Washington Center
Thu 05:09:30 AM 36.2519 -76.5861 26° Northeast 460 529 37,000 -50 Level Washington Center
Thu 05:10:30 AM 36.3694 -76.5181 25° Northeast 460 529 36,900  Descending Washington Center
Thu 05:11:29 AM 36.4869 -76.4472 26° Northeast 465 535 37,000  Climbing Washington Center
Thu 05:12:30 AM 36.6042 -76.3758 26° Northeast 465 535 36,900  Descending Washington Center
Thu 05:13:30 AM 36.7361 -76.2892 28° Northeast 465 535 37,000 49 Climbing Washington Center
Thu 05:14:32 AM 36.8553 -76.2175 26° Northeast 475 547 37,000  Level Washington Center
Thu 05:15:29 AM 36.9683 -76.1483 26° Northeast 475 547 37,000  Level Washington Center
Thu 05:16:29 AM 37.0981 -76.0761 24° Northeast 487 560 37,000  Level Washington Center
Thu 05:17:30 AM 37.2278 -75.9908 28° Northeast 482 555 37,000  Level Washington Center
Thu 05:18:30 AM 37.3489 -75.9158 26° Northeast 482 555 37,000 -49 Level Washington Center
Thu 05:19:32 AM 37.4700 -75.8403 26° Northeast 482 555 36,900  Descending Washington Center
Thu 05:20:30 AM 37.5892 -75.7675 26° Northeast 482 555 37,000 50 Climbing Washington Center
Thu 05:21:31 AM 37.7039 -75.6942 27° Northeast 468 539 37,000 -50 Level Washington Center
Thu 05:22:30 AM 37.8206 -75.6206 26° Northeast 468 539 36,900 -50 Descending Washington Center
Thu 05:23:32 AM 37.9375 -75.5497 26° Northeast 468 539 36,900  Level Washington Center
Thu 05:24:29 AM 38.0481 -75.4731 29° Northeast 458 527 36,900 51 Level Washington Center
Thu 05:25:30 AM 38.1667 -75.4042 25° Northeast 458 527 37,000 50 Climbing Washington Center
Thu 05:26:30 AM 38.2792 -75.3300 27° Northeast 451 519 37,000  Level Washington Center
Thu 05:27:30 AM 38.3792 -75.2500 32° Northeast 451 519 37,000 -50 Level Washington Center
Thu 05:28:30 AM 38.4872 -75.1567 34° Northeast 461 531 36,900 -198 Descending Washington Center
Thu 05:29:31 AM 38.5972 -75.0683 32° Northeast 466 536 36,600 -1,250 Descending Washington Center
Thu 05:30:30 AM 38.7117 -74.9797 31° Northeast 471 542 34,400 -2,218 Descending Washington Center
Thu 05:31:30 AM 38.8236 -74.8908 32° Northeast 471 542 32,200 -2,083 Descending Washington Center
Thu 05:32:31 AM 38.9336 -74.8044 31° Northeast 471 542 30,200 -1,950 Descending Washington Center
Thu 05:33:30 AM 39.0350 -74.7206 33° Northeast 460 529 28,300 -1,410 Descending Washington Center
Thu 05:35:00 AM 39.4173 -74.4306 41° Northeast  Level FlightAware Approximate
Thu 05:42:00 AM 40.6333 -73.7667 North  Level FlightAware Approximate
Thu 05:43:00 AM 40.6398 -73.7789 North  Level Estimated
Thu 05:44:00 AM 40.6398 -73.7789 North  Level Estimated
Thu 05:45:00 AM 40.6398 -73.7789 North  Level Estimated
Thu 05:46:00 AM 40.6398 -73.7789 North  Level Estimated
Thu 05:47:00 AM 40.6398 -73.7789 North  Level Estimated
Thu 05:48:00 AM 40.6398 -73.7789 North  Level Estimated
Thu 05:49:00 AM 40.6398 -73.7789 North  Level Estimated
Thu 05:49:32 AM 40.3360 -73.6320 North 280 322 6,200  Level FlightAware ADS-B
Thu 05:49:52 AM 40.3580 -73.6170 27° Northeast 267 307 6,000 -571 Descending FlightAware ADS-B
Thu 05:50:14 AM 40.3810 -73.6010 28° Northeast 253 291 5,800 -600 Descending FlightAware ADS-B
Thu 05:50:32 AM 40.4000 -73.5880 28° Northeast 242 278 5,600 -1,000 Descending FlightAware ADS-B
Thu 05:50:56 AM 40.4240 -73.5720 27° Northeast 239 275 5,100 -1,256 Descending FlightAware ADS-B
Thu 05:51:15 AM 40.4430 -73.5600 26° Northeast 239 275 4,700 -1,227 Descending FlightAware ADS-B
Thu 05:51:40 AM 40.4670 -73.5430 28° Northeast 238 274 4,200 -1,067 Descending FlightAware ADS-B
Thu 05:52:00 AM 40.4870 -73.5290 28° Northeast 235 270 3,900 -750 Descending FlightAware ADS-B
Thu 05:52:20 AM 40.5070 -73.5190 21° North 222 255 3,700 -638 Descending FlightAware ADS-B
Thu 05:52:47 AM 40.5300 -73.5290 342° North 199 229 3,400 -667 Descending FlightAware ADS-B
Thu 05:52:56 AM 40.5360 -73.5350 323° Northwest 193 222 3,300 -1,200 Descending FlightAware ADS-B
Thu 05:53:07 AM 40.5440 -73.5440 319° Northwest 191 220 3,000 -1,313 Descending FlightAware ADS-B
Thu 05:53:28 AM 40.5550 -73.5640 306° West 189 217 2,600 -800 Descending FlightAware ADS-B
Thu 05:53:52 AM 40.5660 -73.5880 301° West 190 219 2,400 -409 Descending FlightAware ADS-B
Thu 05:54:12 AM 40.5750 -73.6080 301° West 190 219 2,300 -300 Descending FlightAware ADS-B
Thu 05:54:32 AM 40.5840 -73.6280 301° West 188 216 2,200 -600 Descending FlightAware ADS-B
Thu 05:54:52 AM 40.5930 -73.6480 301° West 184 212 1,900 -933 Descending FlightAware ADS-B
Thu 05:55:17 AM 40.6030 -73.6700 301° West 162 186 1,500 -800 Descending FlightAware ADS-B
Thu 05:55:37 AM 40.6100 -73.6850 302° West 140 161 1,300 -714 Descending FlightAware ADS-B
Thu 05:55:59 AM 40.6170 -73.7000 302° West 129 148 1,000 -732 Descending FlightAware ADS-B
Thu 05:56:18 AM 40.6230 -73.7130 301° West 129 148 800 -585 Descending FlightAware ADS-B
Thu 05:56:40 AM 40.6300 -73.7280 302° West 130 150 600 -714 Descending FlightAware ADS-B
Thu 05:57:00 AM 40.6360 -73.7420 299° West 131 151 300 -750 Descending FlightAware ADS-B
Thu 05:57:20 AM 40.6420 -73.7560 299° West 133 153 100 -600 Descending FlightAware ADS-B
Thu 05:57:40 AM 40.6490 -73.7700 303° West 120 138 -300 Descending FlightAware ADS-B

Login

Don't have an account? Register now (free) for customized features, flight alerts, and more!